createdAt,value
2019-02-17T00:00:32.309Z,24.97
2019-02-17T00:03:01.035Z,23.07
2019-02-17T00:05:29.737Z,25.70
2019-02-17T00:07:58.303Z,22.37
2019-02-17T00:10:27.159Z,23.80
2019-02-17T00:12:55.851Z,22.40
2019-02-17T00:15:24.472Z,22.60
2019-02-17T00:17:53.447Z,21.87
2019-02-17T00:20:22.098Z,22.27
2019-02-17T00:22:50.680Z,26.33
2019-02-17T00:25:20.537Z,26.37
2019-02-17T00:27:49.955Z,29.48
2019-02-17T00:30:18.610Z,28.50
2019-02-17T00:32:47.274Z,26.60
2019-02-17T00:35:15.961Z,26.87
2019-02-17T00:37:44.508Z,25.37
2019-02-17T00:40:13.253Z,24.07
2019-02-17T00:42:42.011Z,24.50
2019-02-17T00:45:10.899Z,22.05
2019-02-17T00:47:39.615Z,23.87
2019-02-17T00:50:10.455Z,22.43
2019-02-17T00:52:39.146Z,20.73
2019-02-17T00:55:08.303Z,21.27
2019-02-17T00:57:36.918Z,23.33
2019-02-17T01:00:08.600Z,21.53
2019-02-17T01:02:37.308Z,21.87
2019-02-17T01:05:07.329Z,24.70
2019-02-17T01:07:36.039Z,24.20
2019-02-17T01:10:07.525Z,21.75
2019-02-17T01:12:36.379Z,26.07
2019-02-17T01:15:08.639Z,27.80
2019-02-17T01:17:37.316Z,27.53
2019-02-17T01:20:08.590Z,26.00
2019-02-17T01:22:37.365Z,22.40
2019-02-17T01:25:08.845Z,21.20
2019-02-17T01:27:37.525Z,22.60
2019-02-17T01:30:09.308Z,19.87
2019-02-17T01:32:37.928Z,21.40
2019-02-17T01:35:06.663Z,21.43
2019-02-17T01:37:35.326Z,23.17
2019-02-17T01:40:07.892Z,21.80
2019-02-17T01:42:36.756Z,20.80
2019-02-17T01:45:08.737Z,22.00
2019-02-17T01:47:37.424Z,22.97
2019-02-17T01:50:08.276Z,22.70
2019-02-17T01:52:36.968Z,22.40
2019-02-17T01:55:08.059Z,27.33
2019-02-17T01:57:36.670Z,25.27
2019-02-17T02:00:10.919Z,26.40
2019-02-17T02:02:39.594Z,24.37
2019-02-17T02:05:08.289Z,24.40
2019-02-17T02:07:36.959Z,24.40
2019-02-17T02:10:08.999Z,27.00
2019-02-17T02:12:37.774Z,28.57
2019-02-17T02:15:11.964Z,25.43
2019-02-17T02:17:40.736Z,24.07
2019-02-17T02:20:11.690Z,25.60
2019-02-17T02:22:40.243Z,23.60
2019-02-17T02:25:10.064Z,24.23
2019-02-17T02:27:38.761Z,24.90
2019-02-17T02:30:10.351Z,25.00
2019-02-17T02:32:39.101Z,25.17
2019-02-17T02:35:08.211Z,24.03
2019-02-17T02:37:36.909Z,24.10
2019-02-17T02:40:07.318Z,24.00
2019-02-17T02:42:36.100Z,22.42
2019-02-17T02:45:08.239Z,23.83
2019-02-17T02:47:36.869Z,23.67
2019-02-17T02:50:11.346Z,23.17
2019-02-17T02:52:40.038Z,19.50
2019-02-17T02:55:10.039Z,23.60
2019-02-17T02:57:38.693Z,24.63
2019-02-17T03:00:10.455Z,27.90
2019-02-17T03:02:39.174Z,25.20
2019-02-17T03:05:28.487Z,28.30
2019-02-17T03:07:57.169Z,25.50
2019-02-17T03:10:25.854Z,23.70
2019-02-17T03:12:54.398Z,27.17
2019-02-17T03:15:23.117Z,27.70
2019-02-17T03:17:51.848Z,25.80
2019-02-17T03:20:20.540Z,26.20
2019-02-17T03:22:49.178Z,28.60
2019-02-17T03:25:17.815Z,29.37
2019-02-17T03:27:46.467Z,28.47
2019-02-17T03:30:15.178Z,30.70
2019-02-17T03:32:43.925Z,29.37
2019-02-17T03:35:12.661Z,28.53
2019-02-17T03:37:41.400Z,28.10
2019-02-17T03:40:10.301Z,25.67
2019-02-17T03:42:38.926Z,28.10
2019-02-17T03:45:10.491Z,26.00
2019-02-17T03:47:39.250Z,28.80
2019-02-17T03:50:09.380Z,27.00
2019-02-17T03:52:38.059Z,27.33
2019-02-17T03:55:06.778Z,29.30
2019-02-17T03:57:35.530Z,29.30
2019-02-17T04:00:16.373Z,30.70
2019-02-17T04:02:37.851Z,34.70
2019-02-17T04:05:07.358Z,34.00
2019-02-17T04:07:36.035Z,34.80
2019-02-17T04:10:05.884Z,35.73
2019-02-17T04:12:34.568Z,34.17
2019-02-17T04:15:03.358Z,32.63
2019-02-17T04:17:32.078Z,32.10
2019-02-17T04:20:00.696Z,30.23
2019-02-17T04:22:29.432Z,29.80
2019-02-17T04:24:58.365Z,31.30
2019-02-17T04:27:27.072Z,34.13
2019-02-17T04:29:55.775Z,32.20
2019-02-17T04:32:24.510Z,33.97
2019-02-17T04:34:53.238Z,32.60
2019-02-17T04:37:21.934Z,33.25
2019-02-17T04:39:50.667Z,32.90
2019-02-17T04:42:19.372Z,31.27
2019-02-17T04:44:48.016Z,29.43
2019-02-17T04:47:16.675Z,30.10
2019-02-17T04:49:45.280Z,31.50
2019-02-17T04:52:14.047Z,30.93
2019-02-17T04:54:42.706Z,30.40
2019-02-17T04:57:11.486Z,29.63
2019-02-17T04:59:40.162Z,29.87
2019-02-17T05:02:08.892Z,33.57
2019-02-17T05:04:37.530Z,32.67
2019-02-17T05:07:06.438Z,32.88
2019-02-17T05:09:35.070Z,35.30
2019-02-17T05:12:03.744Z,30.43
2019-02-17T05:14:32.508Z,30.80
2019-02-17T05:17:01.220Z,32.07
2019-02-17T05:19:29.881Z,34.03
2019-02-17T05:21:58.502Z,33.17
2019-02-17T05:24:27.242Z,32.77
2019-02-17T05:26:55.980Z,30.30
2019-02-17T05:29:24.639Z,32.60
2019-02-17T05:31:53.279Z,31.80
2019-02-17T05:34:21.970Z,31.45
2019-02-17T05:36:50.672Z,28.90
2019-02-17T05:39:19.411Z,31.62
2019-02-17T05:41:48.137Z,29.47
2019-02-17T05:44:16.689Z,30.90
2019-02-17T05:46:45.371Z,29.07
2019-02-17T05:49:13.988Z,27.98
2019-02-17T05:51:42.559Z,29.70
2019-02-17T05:54:11.263Z,30.30
2019-02-17T05:56:39.925Z,27.80
2019-02-17T05:59:08.659Z,30.07
2019-02-17T06:01:37.360Z,28.53
2019-02-17T06:04:06.578Z,26.90
2019-02-17T06:06:35.224Z,29.40
2019-02-17T06:09:04.972Z,26.43
2019-02-17T06:11:33.627Z,28.00
2019-02-17T06:14:02.448Z,28.43
2019-02-17T06:16:31.204Z,26.43
2019-02-17T06:18:59.941Z,25.90
2019-02-17T06:21:28.598Z,24.77
2019-02-17T06:23:57.199Z,26.20
2019-02-17T06:26:25.767Z,26.67
2019-02-17T06:28:54.567Z,25.97
2019-02-17T06:31:23.284Z,26.23
2019-02-17T06:33:52.251Z,24.50
2019-02-17T06:36:21.305Z,25.60
2019-02-17T06:38:50.024Z,24.07
2019-02-17T06:41:18.684Z,26.07
2019-02-17T06:43:47.374Z,25.13
2019-02-17T06:46:17.708Z,27.50
2019-02-17T06:48:46.339Z,29.17
2019-02-17T06:51:15.020Z,27.30
2019-02-17T06:53:43.749Z,26.40
2019-02-17T06:56:14.086Z,25.57
2019-02-17T06:58:42.768Z,26.70
2019-02-17T07:01:11.461Z,27.00
2019-02-17T07:03:40.062Z,29.57
2019-02-17T07:06:10.422Z,29.37
2019-02-17T07:08:39.368Z,28.15
2019-02-17T07:11:08.116Z,29.80
2019-02-17T07:13:36.819Z,33.00
2019-02-17T07:16:05.661Z,31.17
2019-02-17T07:18:34.317Z,32.20
2019-02-17T07:21:03.896Z,33.77
2019-02-17T07:23:32.730Z,36.67
2019-02-17T07:26:01.479Z,34.53
2019-02-17T07:28:30.156Z,36.17
2019-02-17T07:30:59.556Z,34.87
2019-02-17T07:33:29.141Z,36.07
2019-02-17T07:35:58.109Z,36.75
2019-02-17T07:38:26.650Z,38.03
2019-02-17T07:40:55.424Z,39.57
2019-02-17T07:43:24.671Z,37.70
2019-02-17T07:45:56.509Z,36.80
2019-02-17T07:48:25.441Z,35.50
2019-02-17T07:51:06.543Z,32.80
2019-02-17T07:53:36.177Z,25.50
2019-02-17T07:56:05.020Z,23.98
2019-02-17T07:58:33.843Z,21.97
2019-02-17T08:01:04.483Z,20.83
2019-02-17T08:03:33.283Z,19.13
2019-02-17T08:06:02.184Z,19.13
2019-02-17T08:08:30.870Z,21.80
2019-02-17T08:11:03.939Z,18.50
2019-02-17T08:13:30.014Z,19.67
2019-02-17T08:15:58.891Z,20.00
2019-02-17T08:18:29.406Z,19.63
2019-02-17T08:20:58.359Z,19.67
2019-02-17T08:23:26.994Z,19.67
2019-02-17T08:25:55.647Z,20.70
2019-02-17T08:28:24.393Z,19.50
2019-02-17T08:30:57.300Z,19.87
2019-02-17T08:33:26.039Z,19.03
2019-02-17T08:35:54.703Z,19.47
2019-02-17T08:38:23.445Z,18.90
2019-02-17T08:40:52.099Z,19.50
2019-02-17T08:43:21.169Z,20.27
2019-02-17T08:45:50.019Z,20.43
2019-02-17T08:48:18.822Z,18.47
2019-02-17T08:50:48.017Z,20.87
2019-02-17T08:53:17.073Z,19.43
2019-02-17T08:55:46.091Z,19.77
2019-02-17T08:58:14.820Z,19.80
2019-02-17T09:00:43.644Z,19.47
2019-02-17T09:03:12.490Z,18.90
2019-02-17T09:05:44.198Z,20.20
2019-02-17T09:08:12.084Z,18.77
2019-02-17T09:10:41.115Z,16.43
2019-02-17T09:13:10.011Z,18.57
2019-02-17T09:15:38.703Z,16.17
2019-02-17T09:18:07.419Z,18.57
2019-02-17T09:20:37.370Z,17.30
2019-02-17T09:23:06.498Z,16.50
2019-02-17T09:25:35.155Z,17.77
2019-02-17T09:28:03.974Z,17.10
2019-02-17T09:30:33.586Z,18.27
2019-02-17T09:33:02.320Z,16.67
2019-02-17T09:35:32.789Z,15.03
2019-02-17T09:38:01.697Z,18.27
2019-02-17T09:40:31.633Z,16.83
2019-02-17T09:43:01.371Z,16.33
2019-02-17T09:45:31.752Z,16.10
2019-02-17T09:48:00.455Z,17.17
2019-02-17T09:50:29.180Z,15.80
2019-02-17T09:52:57.907Z,17.33
2019-02-17T09:55:26.681Z,15.60
2019-02-17T09:57:55.352Z,15.47
2019-02-17T10:00:24.057Z,17.00
2019-02-17T10:02:52.705Z,16.23
2019-02-17T10:05:21.468Z,15.65
2019-02-17T10:07:51.278Z,16.00
2019-02-17T10:10:21.251Z,16.70
2019-02-17T10:12:50.003Z,15.73
2019-02-17T10:15:18.722Z,16.37
2019-02-17T10:17:47.470Z,15.83
2019-02-17T10:20:17.280Z,13.87
2019-02-17T10:22:45.973Z,15.90
2019-02-17T10:25:14.713Z,16.37
2019-02-17T10:27:43.419Z,15.63
2019-02-17T10:30:14.897Z,15.17
2019-02-17T10:32:43.655Z,16.97
2019-02-17T10:35:12.395Z,16.25
2019-02-17T10:37:41.078Z,17.20
2019-02-17T10:40:12.707Z,16.03
2019-02-17T10:42:41.937Z,15.27
2019-02-17T10:45:12.587Z,16.13
2019-02-17T10:47:41.414Z,14.50
2019-02-17T10:50:12.776Z,14.70
2019-02-17T10:52:49.820Z,14.40
2019-02-17T10:55:18.663Z,15.18
2019-02-17T10:57:47.312Z,15.87
2019-02-17T11:00:20.226Z,15.27
2019-02-17T11:02:49.880Z,15.10
2019-02-17T11:05:18.516Z,14.83
2019-02-17T11:07:47.280Z,14.63
2019-02-17T11:10:15.926Z,14.60
2019-02-17T11:12:44.666Z,14.57
2019-02-17T11:15:19.028Z,14.00
2019-02-17T11:17:59.365Z,14.97
2019-02-17T11:20:28.126Z,13.50
2019-02-17T11:22:56.958Z,14.90
2019-02-17T11:25:27.936Z,14.93
2019-02-17T11:27:57.350Z,14.77
2019-02-17T11:30:25.979Z,14.87
2019-02-17T11:32:58.509Z,13.43
2019-02-17T11:35:29.666Z,15.00
2019-02-17T11:37:57.797Z,14.47
2019-02-17T11:40:26.537Z,15.70
2019-02-17T11:42:55.379Z,14.40
2019-02-17T11:45:24.172Z,15.70
2019-02-17T11:47:53.665Z,15.23
2019-02-17T11:50:30.924Z,15.47
2019-02-17T11:52:59.669Z,15.70
2019-02-17T11:55:28.305Z,16.43
2019-02-17T11:57:57.131Z,15.40
2019-02-17T12:00:26.057Z,15.30
2019-02-17T12:02:54.778Z,14.50
2019-02-17T12:05:23.545Z,16.00
2019-02-17T12:07:52.434Z,14.53
2019-02-17T12:10:21.074Z,13.90
2019-02-17T12:12:49.820Z,15.10
2019-02-17T12:15:18.512Z,14.97
2019-02-17T12:17:47.173Z,15.47
2019-02-17T12:20:38.247Z,15.13
2019-02-17T12:23:09.786Z,14.47
2019-02-17T12:25:43.121Z,14.83
2019-02-17T12:28:13.434Z,15.03
2019-02-17T12:30:43.883Z,14.87
2019-02-17T12:33:19.224Z,15.30
2019-02-17T12:35:43.028Z,14.83
2019-02-17T12:38:11.854Z,15.73
2019-02-17T12:40:40.521Z,15.10
2019-02-17T12:43:09.226Z,15.50
2019-02-17T12:45:38.003Z,14.47
2019-02-17T12:48:06.762Z,14.00
2019-02-17T12:50:35.464Z,15.87
2019-02-17T12:53:04.900Z,14.73
2019-02-17T12:55:33.621Z,14.43
2019-02-17T12:58:02.962Z,15.07
2019-02-17T13:00:31.717Z,14.10
2019-02-17T13:03:00.424Z,15.70
2019-02-17T13:05:29.341Z,14.93
2019-02-17T13:07:58.136Z,14.90
2019-02-17T13:10:26.892Z,15.27
2019-02-17T13:12:55.746Z,14.67
2019-02-17T13:15:24.833Z,15.70
2019-02-17T13:17:53.559Z,14.07
2019-02-17T13:20:22.543Z,15.45
2019-02-17T13:22:51.114Z,14.23
2019-02-17T13:25:19.898Z,14.37
2019-02-17T13:27:49.033Z,15.20
2019-02-17T13:30:28.308Z,16.42
2019-02-17T13:32:57.136Z,14.93
2019-02-17T13:35:27.065Z,14.93
2019-02-17T13:37:55.620Z,14.37
2019-02-17T13:40:24.378Z,14.70
2019-02-17T13:42:53.188Z,14.60
2019-02-17T13:45:22.013Z,13.78
2019-02-17T13:47:50.948Z,13.50
2019-02-17T13:50:20.044Z,15.00
2019-02-17T13:52:48.642Z,16.52
2019-02-17T13:55:17.568Z,14.40
2019-02-17T13:57:46.664Z,13.60
2019-02-17T14:00:19.319Z,14.07
2019-02-17T14:02:48.086Z,15.30
2019-02-17T14:05:16.817Z,14.97
2019-02-17T14:07:45.457Z,15.13
2019-02-17T14:10:19.429Z,14.55
2019-02-17T14:12:48.273Z,14.97
2019-02-17T14:15:21.732Z,14.63
2019-02-17T14:17:50.461Z,14.57
2019-02-17T14:20:19.921Z,14.60
2019-02-17T14:22:48.702Z,13.30
2019-02-17T14:25:17.722Z,12.83
2019-02-17T14:27:46.539Z,12.40
2019-02-17T14:30:17.631Z,14.23
2019-02-17T14:32:46.282Z,12.50
2019-02-17T14:35:20.733Z,12.28
2019-02-17T14:37:49.539Z,13.10
2019-02-17T14:40:18.088Z,13.50
2019-02-17T14:42:46.839Z,13.83
2019-02-17T14:45:29.308Z,13.33
2019-02-17T14:48:11.522Z,13.37
2019-02-17T14:50:56.742Z,12.40
2019-02-17T14:53:39.627Z,12.57
2019-02-17T14:56:24.645Z,12.27
2019-02-17T14:59:08.836Z,11.20
2019-02-17T15:01:53.844Z,12.60
2019-02-17T15:04:38.127Z,12.28
2019-02-17T15:07:26.687Z,11.20
2019-02-17T15:10:10.563Z,12.03
2019-02-17T15:12:56.349Z,12.37
2019-02-17T15:15:44.972Z,10.97
2019-02-17T15:18:30.724Z,12.33
2019-02-17T15:21:23.698Z,11.67
2019-02-17T15:24:08.141Z,11.07
2019-02-17T15:26:52.857Z,11.17
2019-02-17T15:29:37.800Z,10.50
2019-02-17T15:32:19.963Z,11.87
2019-02-17T15:35:11.230Z,10.60
2019-02-17T15:37:54.261Z,11.27
2019-02-17T15:40:40.963Z,10.70
2019-02-17T15:43:24.290Z,12.23
2019-02-17T15:46:09.230Z,10.37
2019-02-17T15:48:52.765Z,9.80
2019-02-17T15:51:27.006Z,11.20
2019-02-17T15:54:02.338Z,10.10
2019-02-17T15:56:31.069Z,10.60
2019-02-17T15:59:06.122Z,11.30
2019-02-17T16:01:34.911Z,10.90
2019-02-17T16:04:08.425Z,11.57
2019-02-17T16:06:37.240Z,11.57
2019-02-17T16:09:07.535Z,9.83
2019-02-17T16:11:36.803Z,10.45
2019-02-17T16:14:05.643Z,12.00
2019-02-17T16:16:34.354Z,10.57
2019-02-17T16:19:03.168Z,11.40
2019-02-17T16:21:31.885Z,11.20
2019-02-17T16:24:00.620Z,12.00
2019-02-17T16:26:29.331Z,11.83
2019-02-17T16:28:58.015Z,11.30
2019-02-17T16:31:26.668Z,11.90
2019-02-17T16:33:55.970Z,11.70
2019-02-17T16:36:24.793Z,11.47
2019-02-17T16:38:53.513Z,11.60
2019-02-17T16:41:22.254Z,12.17
2019-02-17T16:43:51.038Z,12.93
2019-02-17T16:46:19.743Z,11.78
2019-02-17T16:48:48.496Z,12.23
2019-02-17T16:51:17.254Z,12.40
2019-02-17T16:53:46.096Z,13.03
2019-02-17T16:56:14.810Z,12.77
2019-02-17T16:58:43.446Z,13.60
2019-02-17T17:01:12.257Z,12.88
2019-02-17T17:03:41.284Z,13.50
2019-02-17T17:06:10.122Z,12.33
2019-02-17T17:08:39.115Z,12.85
2019-02-17T17:11:07.881Z,13.70
2019-02-17T17:13:36.638Z,14.90
2019-02-17T17:16:05.321Z,13.20
2019-02-17T17:18:34.016Z,14.13
2019-02-17T17:21:03.544Z,14.77
2019-02-17T17:23:32.307Z,13.07
2019-02-17T17:26:01.045Z,14.53
2019-02-17T17:28:29.750Z,14.03
2019-02-17T17:30:58.655Z,15.33
2019-02-17T17:33:27.260Z,15.20
2019-02-17T17:35:55.971Z,16.70
2019-02-17T17:38:24.725Z,14.75
2019-02-17T17:40:53.414Z,16.00
2019-02-17T17:43:22.176Z,16.25
2019-02-17T17:45:50.919Z,16.30
2019-02-17T17:48:19.849Z,16.60
2019-02-17T17:50:48.571Z,16.83
2019-02-17T17:53:17.320Z,17.02
2019-02-17T17:55:46.076Z,15.30
2019-02-17T17:58:14.893Z,17.13
2019-02-17T18:00:43.761Z,14.73
2019-02-17T18:03:12.493Z,13.75
2019-02-17T18:05:41.280Z,17.12
2019-02-17T18:08:10.037Z,18.57
2019-02-17T18:10:43.282Z,17.67
2019-02-17T18:13:12.014Z,18.03
2019-02-17T18:15:41.527Z,17.93
2019-02-17T18:18:10.415Z,18.23
2019-02-17T18:20:39.226Z,17.03
2019-02-17T18:23:11.412Z,15.78
2019-02-17T18:25:40.510Z,16.73
2019-02-17T18:28:09.284Z,16.30
2019-02-17T18:30:38.040Z,16.17
2019-02-17T18:33:06.799Z,14.97
2019-02-17T18:35:35.425Z,16.23
2019-02-17T18:38:06.313Z,15.28
2019-02-17T18:40:44.659Z,15.67
2019-02-17T18:43:07.961Z,16.70
2019-02-17T18:45:37.074Z,15.77
2019-02-17T18:48:05.765Z,15.17
2019-02-17T18:50:35.540Z,15.90
2019-02-17T18:53:06.207Z,14.67
2019-02-17T18:55:35.154Z,15.03
2019-02-17T18:58:03.966Z,15.77
2019-02-17T19:00:33.063Z,15.90
2019-02-17T19:03:01.762Z,16.17
2019-02-17T19:05:32.299Z,15.43
2019-02-17T19:08:00.859Z,15.20
2019-02-17T19:10:29.692Z,18.53
2019-02-17T19:12:58.412Z,19.40
2019-02-17T19:15:27.120Z,17.67
2019-02-17T19:17:55.882Z,18.43
2019-02-17T19:20:36.337Z,19.30
2019-02-17T19:23:05.309Z,21.37
2019-02-17T19:25:34.012Z,16.83
2019-02-17T19:28:03.732Z,15.50
2019-02-17T19:30:32.894Z,15.83
2019-02-17T19:33:01.635Z,16.73
2019-02-17T19:35:30.848Z,16.53
2019-02-17T19:37:59.684Z,17.80
2019-02-17T19:40:28.430Z,16.60
2019-02-17T19:42:57.623Z,18.20
2019-02-17T19:45:26.604Z,19.07
2019-02-17T19:47:55.396Z,17.83
2019-02-17T19:50:24.285Z,18.50
2019-02-17T19:52:53.125Z,17.13
2019-02-17T19:55:21.914Z,17.57
2019-02-17T19:57:50.777Z,17.40
2019-02-17T20:00:22.115Z,19.80
2019-02-17T20:03:07.681Z,19.17
2019-02-17T20:05:38.001Z,18.07
2019-02-17T20:08:06.852Z,19.37
2019-02-17T20:10:35.441Z,17.50
2019-02-17T20:13:05.247Z,16.10
2019-02-17T20:15:35.196Z,16.53
2019-02-17T20:18:03.877Z,16.27
2019-02-17T20:20:32.568Z,19.40
2019-02-17T20:23:01.295Z,19.23
2019-02-17T20:25:29.999Z,20.80
2019-02-17T20:27:58.719Z,18.63
2019-02-17T20:30:27.365Z,18.40
2019-02-17T20:32:56.094Z,17.27
2019-02-17T20:35:24.887Z,23.47
2019-02-17T20:37:53.501Z,22.00
2019-02-17T20:40:22.244Z,21.57
2019-02-17T20:42:50.956Z,20.87
2019-02-17T20:45:19.725Z,21.97
2019-02-17T20:47:48.418Z,24.92
2019-02-17T20:50:19.247Z,20.93
2019-02-17T20:52:47.978Z,24.40
2019-02-17T20:55:16.689Z,19.27
2019-02-17T20:57:45.392Z,19.00
2019-02-17T21:00:22.565Z,18.23
2019-02-17T21:03:06.327Z,20.00
2019-02-17T21:05:36.704Z,20.40
2019-02-17T21:08:21.023Z,20.67
2019-02-17T21:10:52.205Z,24.37
2019-02-17T21:13:24.928Z,23.70
2019-02-17T21:15:53.773Z,27.27
2019-02-17T21:18:28.934Z,19.83
2019-02-17T21:21:12.434Z,21.40
2019-02-17T21:23:45.230Z,20.20
2019-02-17T21:26:14.248Z,18.55
2019-02-17T21:28:46.175Z,19.40
2019-02-17T21:31:17.503Z,22.15
2019-02-17T21:33:55.652Z,18.30
2019-02-17T21:36:25.060Z,16.40
2019-02-17T21:38:56.012Z,16.50
2019-02-17T21:41:28.300Z,16.63
2019-02-17T21:43:58.896Z,16.63
2019-02-17T21:46:27.701Z,20.63
2019-02-17T21:48:56.601Z,16.10
2019-02-17T21:51:26.787Z,16.50
2019-02-17T21:53:55.535Z,17.50
2019-02-17T21:56:24.299Z,19.60
2019-02-17T21:58:52.951Z,16.63
2019-02-17T22:01:21.770Z,14.15
2019-02-17T22:03:50.478Z,14.67
2019-02-17T22:06:19.134Z,13.97
2019-02-17T22:08:47.925Z,14.87
2019-02-17T22:11:17.549Z,13.50
2019-02-17T22:13:46.355Z,13.80
2019-02-17T22:16:15.085Z,14.28
2019-02-17T22:18:43.881Z,16.57
2019-02-17T22:21:12.701Z,13.63
2019-02-17T22:23:41.425Z,13.97
2019-02-17T22:26:10.295Z,13.70
2019-02-17T22:28:39.080Z,12.17
2019-02-17T22:31:07.830Z,12.60
2019-02-17T22:33:36.493Z,12.10
2019-02-17T22:36:05.266Z,11.90
2019-02-17T22:38:34.011Z,11.77
2019-02-17T22:41:03.120Z,10.53
2019-02-17T22:43:33.234Z,12.00
2019-02-17T22:46:02.459Z,11.50
2019-02-17T22:48:31.217Z,10.43
2019-02-17T22:50:59.921Z,10.75
2019-02-17T22:53:28.647Z,10.40
2019-02-17T22:55:57.331Z,10.47
2019-02-17T22:58:25.968Z,11.10
2019-02-17T23:00:59.246Z,10.20
2019-02-17T23:03:30.940Z,9.53
2019-02-17T23:05:59.934Z,9.63
2019-02-17T23:08:28.636Z,9.80
2019-02-17T23:10:57.415Z,9.80
2019-02-17T23:13:26.545Z,10.47
2019-02-17T23:15:55.164Z,10.60
2019-02-17T23:18:23.890Z,8.97
2019-02-17T23:20:52.617Z,7.70
2019-02-17T23:23:21.323Z,8.53
2019-02-17T23:25:49.996Z,8.87
2019-02-17T23:28:18.624Z,9.07
2019-02-17T23:30:47.331Z,9.67
2019-02-17T23:33:16.070Z,7.58
2019-02-17T23:35:44.848Z,8.50
2019-02-17T23:38:13.478Z,7.70
2019-02-17T23:40:42.106Z,8.77
2019-02-17T23:43:10.767Z,8.13
2019-02-17T23:45:39.670Z,7.60
2019-02-17T23:48:08.421Z,8.87
2019-02-17T23:50:37.066Z,8.93
2019-02-17T23:53:05.778Z,8.30
2019-02-17T23:55:34.390Z,8.03
2019-02-17T23:58:03.087Z,6.83
